createdAt,value
2023-02-02T00:02:29.569Z,69.38
2023-02-02T00:05:22.713Z,69.58
2023-02-02T00:08:15.969Z,69.80
2023-02-02T00:11:09.059Z,69.73
2023-02-02T00:14:02.187Z,69.65
2023-02-02T00:16:55.620Z,69.34
2023-02-02T00:19:49.068Z,68.99
2023-02-02T00:22:41.809Z,68.77
2023-02-02T00:25:34.907Z,68.73
2023-02-02T00:28:27.648Z,68.61
2023-02-02T00:31:13.908Z,68.66
2023-02-02T00:34:06.791Z,68.78
2023-02-02T00:37:00.148Z,68.56
2023-02-02T00:39:53.149Z,68.34
2023-02-02T00:42:50.540Z,68.33
2023-02-02T00:45:43.397Z,68.44
2023-02-02T00:48:36.442Z,68.59
2023-02-02T00:51:29.246Z,68.77
2023-02-02T00:54:22.903Z,68.84
2023-02-02T00:57:17.396Z,68.84
2023-02-02T01:00:15.281Z,68.88
2023-02-02T01:03:08.248Z,69.85
2023-02-02T01:06:01.032Z,69.57
2023-02-02T01:08:53.855Z,69.39
2023-02-02T01:11:46.702Z,69.40
2023-02-02T01:14:39.448Z,69.45
2023-02-02T01:17:32.385Z,69.51
2023-02-02T01:20:25.944Z,71.17
2023-02-02T01:23:18.896Z,70.80
2023-02-02T01:26:13.964Z,71.35
2023-02-02T01:29:07.473Z,70.59
2023-02-02T01:32:00.872Z,68.25
2023-02-02T01:34:53.070Z,67.82
2023-02-02T01:37:45.989Z,67.25
2023-02-02T01:40:38.894Z,67.01
2023-02-02T01:43:52.809Z,67.26
2023-02-02T01:46:46.786Z,67.56
2023-02-02T01:49:41.530Z,68.40
2023-02-02T01:52:37.133Z,69.19
2023-02-02T01:55:32.900Z,69.54
2023-02-02T01:58:27.390Z,70.14
2023-02-02T02:01:20.364Z,70.71
2023-02-02T02:04:13.672Z,71.11
2023-02-02T02:07:02.357Z,72.08
2023-02-02T02:09:55.448Z,73.34
2023-02-02T02:12:49.021Z,73.24
2023-02-02T02:16:20.146Z,71.82
2023-02-02T02:19:27.308Z,69.65
2023-02-02T02:22:39.817Z,68.04
2023-02-02T02:26:16.416Z,67.30
2023-02-02T02:29:35.909Z,68.40
2023-02-02T02:32:37.932Z,67.73
2023-02-02T02:35:38.431Z,67.33
2023-02-02T02:38:40.186Z,67.02
2023-02-02T02:41:39.423Z,67.30
2023-02-02T02:44:33.750Z,68.16
2023-02-02T02:47:27.242Z,69.12
2023-02-02T02:50:20.607Z,70.92
2023-02-02T02:53:17.247Z,71.80
2023-02-02T02:56:18.815Z,70.02
2023-02-02T02:59:19.797Z,68.45
2023-02-02T03:02:41.271Z,67.13
2023-02-02T03:05:43.192Z,66.95
2023-02-02T03:08:41.689Z,66.86
2023-02-02T03:11:35.686Z,66.35
2023-02-02T03:14:28.887Z,66.56
2023-02-02T03:17:21.968Z,65.97
2023-02-02T03:20:06.552Z,65.57
2023-02-02T03:22:59.444Z,65.98
2023-02-02T03:25:52.411Z,66.53
2023-02-02T03:28:38.542Z,66.01
2023-02-02T03:31:32.317Z,66.77
2023-02-02T03:34:25.435Z,66.57
2023-02-02T03:37:19.856Z,66.50
2023-02-02T03:40:14.918Z,64.86
2023-02-02T03:43:08.239Z,64.71
2023-02-02T03:46:04.533Z,65.33
2023-02-02T03:48:50.137Z,65.67
2023-02-02T03:51:44.524Z,65.55
2023-02-02T03:54:38.459Z,65.98
2023-02-02T03:57:31.476Z,66.23
2023-02-02T04:00:26.620Z,66.94
2023-02-02T04:03:19.721Z,66.33
2023-02-02T04:06:14.544Z,65.55
2023-02-02T04:09:07.496Z,64.77
2023-02-02T04:12:03.451Z,64.32
2023-02-02T04:14:56.369Z,64.29
2023-02-02T04:17:51.006Z,63.73
2023-02-02T04:20:43.985Z,63.18
2023-02-02T04:23:37.276Z,63.23
2023-02-02T04:26:30.445Z,63.18
2023-02-02T04:29:23.696Z,64.66
2023-02-02T04:32:17.661Z,64.56
2023-02-02T04:35:12.084Z,64.33
2023-02-02T04:38:05.210Z,64.03
2023-02-02T04:40:59.329Z,63.53
2023-02-02T04:43:52.440Z,63.53
2023-02-02T04:46:47.343Z,63.02
2023-02-02T04:49:40.145Z,63.14
2023-02-02T04:52:35.426Z,64.23
2023-02-02T04:55:18.441Z,64.57
2023-02-02T04:58:11.658Z,65.04
2023-02-02T05:01:11.847Z,64.84
2023-02-02T05:03:54.231Z,65.08
2023-02-02T05:06:47.449Z,66.44
2023-02-02T05:09:42.088Z,65.48
2023-02-02T05:12:35.061Z,65.25
2023-02-02T05:15:28.076Z,66.47
2023-02-02T05:18:22.203Z,65.71
2023-02-02T05:21:15.180Z,63.86
2023-02-02T05:24:08.549Z,63.03
2023-02-02T05:27:01.719Z,63.13
2023-02-02T05:29:54.520Z,64.12
2023-02-02T05:32:47.476Z,65.20
2023-02-02T05:35:39.425Z,66.35
2023-02-02T05:38:32.680Z,66.82
2023-02-02T05:41:25.961Z,67.50
2023-02-02T05:44:19.643Z,67.94
2023-02-02T05:47:14.210Z,68.24
2023-02-02T05:50:08.225Z,68.48
2023-02-02T05:53:02.952Z,69.00
2023-02-02T05:55:55.984Z,69.39
2023-02-02T05:58:50.622Z,69.90
2023-02-02T06:01:43.479Z,69.78
2023-02-02T06:04:38.975Z,69.87
2023-02-02T06:07:32.195Z,69.85
2023-02-02T06:10:26.891Z,69.77
2023-02-02T06:13:19.671Z,69.95
2023-02-02T06:16:13.947Z,69.89
2023-02-02T06:19:06.732Z,69.87
2023-02-02T06:21:59.675Z,70.18
2023-02-02T06:24:53.633Z,70.94
2023-02-02T06:27:46.589Z,71.02
2023-02-02T06:30:27.224Z,69.72
2023-02-02T06:33:20.337Z,68.60
2023-02-02T06:36:13.514Z,68.29
2023-02-02T06:39:00.609Z,68.33
2023-02-02T06:41:53.724Z,67.08
2023-02-02T06:44:46.600Z,66.34
2023-02-02T06:47:39.343Z,66.43
2023-02-02T06:50:32.478Z,66.48
2023-02-02T06:53:26.848Z,67.38
2023-02-02T06:56:19.995Z,67.61
2023-02-02T06:59:13.148Z,66.32
2023-02-02T07:02:06.022Z,64.60
2023-02-02T07:04:57.954Z,63.77
2023-02-02T07:07:53.772Z,63.14
2023-02-02T07:11:12.718Z,62.15
2023-02-02T07:13:51.443Z,61.79
2023-02-02T07:16:44.169Z,61.58
2023-02-02T07:19:31.428Z,61.24
2023-02-02T07:22:24.252Z,60.38
2023-02-02T07:25:17.130Z,61.26
2023-02-02T07:28:00.290Z,60.47
2023-02-02T07:30:43.137Z,61.73
2023-02-02T07:33:40.212Z,61.92
2023-02-02T07:36:27.535Z,60.71
2023-02-02T07:39:10.394Z,60.20
2023-02-02T07:41:53.532Z,60.34
2023-02-02T07:44:49.266Z,58.29
2023-02-02T07:47:43.280Z,57.88
2023-02-02T07:50:36.718Z,59.75
2023-02-02T07:53:30.998Z,61.65
2023-02-02T07:56:15.493Z,64.89
2023-02-02T07:59:07.045Z,66.05
2023-02-02T08:01:58.536Z,65.95
2023-02-02T08:04:43.978Z,65.02
2023-02-02T08:07:38.714Z,64.70
2023-02-02T08:10:31.593Z,64.50
2023-02-02T08:13:25.341Z,64.08
2023-02-02T08:16:17.678Z,64.19
2023-02-02T08:19:11.051Z,64.36
2023-02-02T08:22:04.772Z,64.22
2023-02-02T08:24:48.198Z,63.74
2023-02-02T08:27:35.232Z,63.03
2023-02-02T08:30:29.784Z,62.86
2023-02-02T08:33:22.628Z,62.93
2023-02-02T08:36:06.068Z,62.75
2023-02-02T08:39:02.979Z,62.80
2023-02-02T08:41:59.782Z,62.53
2023-02-02T08:46:12.727Z,62.84
2023-02-02T08:48:10.710Z,62.73
2023-02-02T08:50:59.217Z,62.82
2023-02-02T08:53:51.747Z,62.90
2023-02-02T08:56:44.645Z,62.71
2023-02-02T08:59:38.009Z,62.41
2023-02-02T09:02:23.291Z,62.34
2023-02-02T09:05:16.179Z,62.06
2023-02-02T09:08:09.082Z,61.61
2023-02-02T09:11:06.264Z,61.43
2023-02-02T09:14:02.294Z,61.41
2023-02-02T09:16:56.535Z,61.32
2023-02-02T09:19:39.429Z,61.08
2023-02-02T09:22:24.843Z,61.17
2023-02-02T09:25:18.028Z,61.60
2023-02-02T09:28:11.013Z,61.83
2023-02-02T09:30:56.602Z,61.49
2023-02-02T09:33:42.611Z,62.26
2023-02-02T09:36:27.030Z,62.67
2023-02-02T09:39:29.527Z,62.95
2023-02-02T09:42:42.941Z,63.07
2023-02-02T09:45:47.544Z,63.38
2023-02-02T09:48:52.282Z,63.81
2023-02-02T09:51:50.814Z,64.30
2023-02-02T09:54:49.682Z,64.62
2023-02-02T09:57:47.525Z,65.00
2023-02-02T10:00:45.688Z,65.47
2023-02-02T10:03:45.465Z,65.51
2023-02-02T10:06:38.689Z,65.77
2023-02-02T10:09:41.266Z,65.44
2023-02-02T10:12:47.952Z,65.09
2023-02-02T10:15:45.223Z,65.25
2023-02-02T10:18:46.157Z,65.56
2023-02-02T10:21:46.848Z,66.09
2023-02-02T10:24:40.173Z,66.50
2023-02-02T10:27:39.592Z,67.40
2023-02-02T10:30:45.866Z,67.17
2023-02-02T10:33:41.018Z,66.66
2023-02-02T10:36:36.019Z,66.92
2023-02-02T10:39:41.807Z,67.40
2023-02-02T10:43:06.937Z,66.93
2023-02-02T10:45:55.995Z,66.25
2023-02-02T10:48:37.394Z,65.98
2023-02-02T10:51:31.289Z,66.25
2023-02-02T10:54:54.962Z,66.63
2023-02-02T10:57:59.420Z,66.64
2023-02-02T11:00:54.508Z,67.43
2023-02-02T11:03:47.892Z,67.77
2023-02-02T11:06:50.914Z,68.22
2023-02-02T11:09:45.631Z,68.91
2023-02-02T11:12:41.305Z,69.13
2023-02-02T11:15:33.625Z,69.25
2023-02-02T11:18:33.396Z,69.43
2023-02-02T11:21:28.692Z,69.99
2023-02-02T11:24:25.949Z,69.93
2023-02-02T11:27:26.137Z,69.59
2023-02-02T11:30:29.100Z,69.80
2023-02-02T11:33:28.914Z,69.80
2023-02-02T11:36:23.655Z,69.91
2023-02-02T11:39:22.885Z,70.61
2023-02-02T11:42:21.438Z,70.99
2023-02-02T11:45:21.387Z,71.09
2023-02-02T11:48:20.436Z,72.66
2023-02-02T11:51:25.864Z,71.96
2023-02-02T11:54:25.149Z,72.00
2023-02-02T11:57:22.753Z,70.79
2023-02-02T12:00:28.816Z,69.40
2023-02-02T12:03:33.217Z,67.97
2023-02-02T12:06:23.699Z,66.84
2023-02-02T12:09:22.526Z,65.60
2023-02-02T12:12:43.945Z,64.49
2023-02-02T12:15:47.786Z,63.77
2023-02-02T12:18:55.674Z,63.91
2023-02-02T12:21:50.619Z,63.54
2023-02-02T12:24:52.523Z,63.58
2023-02-02T12:27:57.472Z,63.59
2023-02-02T12:31:00.002Z,63.38
2023-02-02T12:34:02.319Z,64.02
2023-02-02T12:37:04.463Z,64.36
2023-02-02T12:40:17.701Z,64.11
2023-02-02T12:43:22.954Z,64.27
2023-02-02T12:46:40.707Z,64.13
2023-02-02T12:49:54.624Z,64.40
2023-02-02T12:53:08.819Z,64.78
2023-02-02T12:56:16.670Z,64.79
2023-02-02T12:59:19.836Z,64.35
2023-02-02T13:02:07.490Z,63.81
2023-02-02T13:05:14.532Z,63.43
2023-02-02T13:08:10.973Z,63.15
2023-02-02T13:11:31.064Z,62.53
2023-02-02T13:14:29.032Z,62.37
2023-02-02T13:17:27.282Z,62.44
2023-02-02T13:20:33.187Z,62.82
2023-02-02T13:23:30.306Z,62.24
2023-02-02T13:26:14.197Z,62.31
2023-02-02T13:29:03.662Z,62.78
2023-02-02T13:32:01.878Z,62.98
2023-02-02T13:34:58.555Z,63.16
2023-02-02T13:38:00.736Z,63.72
2023-02-02T13:40:56.305Z,63.75
2023-02-02T13:43:58.398Z,63.45
2023-02-02T13:46:58.086Z,62.87
2023-02-02T13:49:54.857Z,62.75
2023-02-02T13:53:10.671Z,62.80
2023-02-02T13:56:25.625Z,63.04
2023-02-02T13:59:37.100Z,63.48
2023-02-02T14:02:39.828Z,64.35
2023-02-02T14:05:36.103Z,64.16
2023-02-02T14:08:30.879Z,63.64
2023-02-02T14:11:28.729Z,63.64
2023-02-02T14:14:35.330Z,63.92
2023-02-02T14:17:56.375Z,64.26
2023-02-02T14:20:52.693Z,65.16
2023-02-02T14:23:56.451Z,65.75
2023-02-02T14:26:54.436Z,66.19
2023-02-02T14:30:17.751Z,66.45
2023-02-02T14:33:47.584Z,66.29
2023-02-02T14:36:52.986Z,65.91
2023-02-02T14:39:59.105Z,65.14
2023-02-02T14:43:25.629Z,64.20
2023-02-02T14:46:37.826Z,63.99
2023-02-02T14:49:39.207Z,63.23
2023-02-02T14:52:34.735Z,63.14
2023-02-02T14:55:30.377Z,63.41
2023-02-02T14:58:26.303Z,63.12
2023-02-02T15:01:24.859Z,62.93
2023-02-02T15:04:28.289Z,62.84
2023-02-02T15:07:40.266Z,62.29
2023-02-02T15:11:22.616Z,61.52
2023-02-02T15:14:10.748Z,61.61
2023-02-02T15:16:59.437Z,62.14
2023-02-02T15:19:57.492Z,63.01
2023-02-02T15:22:52.353Z,63.84
2023-02-02T15:25:49.259Z,64.63
2023-02-02T15:28:49.678Z,65.21
2023-02-02T15:31:47.721Z,65.60
2023-02-02T15:34:48.789Z,65.93
2023-02-02T15:37:45.843Z,66.64
2023-02-02T15:40:40.943Z,65.42
2023-02-02T15:43:30.126Z,65.78
2023-02-02T15:46:26.542Z,66.27
2023-02-02T15:49:36.039Z,66.93
2023-02-02T15:52:33.178Z,67.52
2023-02-02T15:55:27.190Z,65.71
2023-02-02T15:58:29.144Z,63.94
2023-02-02T16:01:25.552Z,64.66
2023-02-02T16:04:22.458Z,65.88
2023-02-02T16:07:22.270Z,66.75
2023-02-02T16:10:23.859Z,67.50
2023-02-02T16:13:26.795Z,67.94
2023-02-02T16:16:29.113Z,68.51
2023-02-02T16:19:25.220Z,69.29
2023-02-02T16:22:21.319Z,69.53
2023-02-02T16:25:23.421Z,69.46
2023-02-02T16:28:18.736Z,69.92
2023-02-02T16:31:07.822Z,69.60
2023-02-02T16:34:02.793Z,69.55
2023-02-02T16:37:17.872Z,69.98
2023-02-02T16:40:29.810Z,70.61
2023-02-02T16:43:29.534Z,70.83
2023-02-02T16:46:45.720Z,70.78
2023-02-02T16:49:30.231Z,70.85
2023-02-02T16:52:24.543Z,71.30
2023-02-02T16:55:14.698Z,71.68
2023-02-02T16:58:07.562Z,71.85
2023-02-02T17:01:14.165Z,72.02
2023-02-02T17:04:17.517Z,72.04
2023-02-02T17:07:11.772Z,72.25
2023-02-02T17:10:14.044Z,72.41
2023-02-02T17:13:01.643Z,72.57
2023-02-02T17:15:54.814Z,72.72
2023-02-02T17:18:48.134Z,72.61
2023-02-02T17:21:41.193Z,72.74
2023-02-02T17:24:27.265Z,72.70
2023-02-02T17:27:03.627Z,72.59
2023-02-02T17:30:01.155Z,72.46
2023-02-02T17:32:54.297Z,72.40
2023-02-02T17:35:55.730Z,72.31
2023-02-02T17:38:40.806Z,72.45
2023-02-02T17:41:16.984Z,72.53
2023-02-02T17:43:49.771Z,72.73
2023-02-02T17:46:35.216Z,72.73
2023-02-02T17:49:28.070Z,72.78
2023-02-02T17:52:11.091Z,72.94
2023-02-02T17:54:52.007Z,73.28
2023-02-02T17:57:27.780Z,73.84
2023-02-02T18:00:23.427Z,73.93
2023-02-02T18:03:19.447Z,74.04
2023-02-02T18:06:00.669Z,74.25
2023-02-02T18:08:45.689Z,74.39
2023-02-02T18:11:38.880Z,74.57
2023-02-02T18:14:14.600Z,74.73
2023-02-02T18:16:47.409Z,74.70
2023-02-02T18:19:33.161Z,74.54
2023-02-02T18:22:18.685Z,74.62
2023-02-02T18:25:12.209Z,74.63
2023-02-02T18:27:57.832Z,74.53
2023-02-02T18:30:30.617Z,74.36
2023-02-02T18:33:03.451Z,74.39
2023-02-02T18:35:42.084Z,74.33
2023-02-02T18:38:19.720Z,74.28
2023-02-02T18:40:59.079Z,74.29
2023-02-02T18:43:32.485Z,74.23
2023-02-02T18:46:10.358Z,74.37
2023-02-02T18:48:48.387Z,74.58
2023-02-02T18:51:22.159Z,74.75
2023-02-02T18:54:00.405Z,74.46
2023-02-02T18:56:33.495Z,74.24
2023-02-02T18:59:06.946Z,74.21
2023-02-02T19:02:02.611Z,74.07
2023-02-02T19:04:37.113Z,74.01
2023-02-02T19:07:30.706Z,73.96
2023-02-02T19:10:14.202Z,73.87
2023-02-02T19:12:53.155Z,73.86
2023-02-02T19:15:47.244Z,73.74
2023-02-02T19:18:40.018Z,73.70
2023-02-02T19:21:20.238Z,73.75
2023-02-02T19:24:15.925Z,73.90
2023-02-02T19:26:54.096Z,74.11
2023-02-02T19:29:41.309Z,74.17
2023-02-02T19:32:27.020Z,74.15
2023-02-02T19:35:24.551Z,74.08
2023-02-02T19:38:07.779Z,74.10
2023-02-02T19:40:43.597Z,74.17
2023-02-02T19:43:37.182Z,74.01
2023-02-02T19:46:34.289Z,73.94
2023-02-02T19:49:16.224Z,73.98
2023-02-02T19:52:03.879Z,73.96
2023-02-02T19:54:57.040Z,73.83
2023-02-02T19:57:50.171Z,73.96
2023-02-02T20:00:44.998Z,73.86
2023-02-02T20:03:46.616Z,73.80
2023-02-02T20:06:27.026Z,73.72
2023-02-02T20:09:15.419Z,73.64
2023-02-02T20:12:23.564Z,73.61
2023-02-02T20:14:58.686Z,73.52
2023-02-02T20:17:34.566Z,73.42
2023-02-02T20:20:30.010Z,73.29
2023-02-02T20:23:04.282Z,73.16
2023-02-02T20:25:41.674Z,73.13
2023-02-02T20:28:32.704Z,73.06
2023-02-02T20:31:18.347Z,73.00
2023-02-02T20:33:53.375Z,72.97
2023-02-02T20:36:39.288Z,72.88
2023-02-02T20:39:36.812Z,72.89
2023-02-02T20:42:20.921Z,72.80
2023-02-02T20:44:58.308Z,72.74
2023-02-02T20:47:52.482Z,72.51
2023-02-02T20:50:31.335Z,72.38
2023-02-02T20:53:10.099Z,72.25
2023-02-02T20:55:47.320Z,72.20
2023-02-02T20:58:33.065Z,72.09
2023-02-02T21:01:26.287Z,72.05
2023-02-02T21:04:21.339Z,71.94
2023-02-02T21:07:14.237Z,72.09
2023-02-02T21:10:07.977Z,72.14
2023-02-02T21:13:00.769Z,72.03
2023-02-02T21:15:53.514Z,71.95
2023-02-02T21:18:47.362Z,71.99
2023-02-02T21:21:40.472Z,71.95
2023-02-02T21:24:33.439Z,71.86
2023-02-02T21:27:26.246Z,71.91
2023-02-02T21:30:03.755Z,72.12
2023-02-02T21:32:58.174Z,72.26
2023-02-02T21:35:51.038Z,72.28
2023-02-02T21:38:45.238Z,72.22
2023-02-02T21:41:38.507Z,72.06
2023-02-02T21:44:27.615Z,71.94
2023-02-02T21:47:29.916Z,71.93
2023-02-02T21:50:21.376Z,71.89
2023-02-02T21:53:22.202Z,71.80
2023-02-02T21:56:33.519Z,71.82
2023-02-02T21:59:31.108Z,71.94
2023-02-02T22:02:45.317Z,71.87
2023-02-02T22:05:39.062Z,71.90
2023-02-02T22:08:36.707Z,71.99
2023-02-02T22:11:31.269Z,71.95
2023-02-02T22:14:21.773Z,71.98
2023-02-02T22:17:23.133Z,71.98
2023-02-02T22:20:30.833Z,71.99
2023-02-02T22:23:04.722Z,72.08
2023-02-02T22:25:59.291Z,72.18
2023-02-02T22:28:52.178Z,72.14
2023-02-02T22:31:44.985Z,72.27
2023-02-02T22:34:30.924Z,72.26
2023-02-02T22:37:23.819Z,72.21
2023-02-02T22:40:22.692Z,72.24
2023-02-02T22:43:16.371Z,72.28
2023-02-02T22:46:09.315Z,72.30
2023-02-02T22:49:00.976Z,72.42
2023-02-02T22:51:46.132Z,72.99
2023-02-02T22:54:38.900Z,72.64
2023-02-02T22:57:32.247Z,71.76
2023-02-02T23:00:28.067Z,70.62
2023-02-02T23:03:21.143Z,71.22
2023-02-02T23:06:14.126Z,71.83
2023-02-02T23:09:06.993Z,69.86
2023-02-02T23:11:59.750Z,69.19
2023-02-02T23:14:52.579Z,69.27
2023-02-02T23:17:45.475Z,69.65
2023-02-02T23:20:38.442Z,70.42
2023-02-02T23:23:31.270Z,70.36
2023-02-02T23:26:24.475Z,70.70
2023-02-02T23:29:17.384Z,72.17
2023-02-02T23:32:10.334Z,72.40
2023-02-02T23:35:03.546Z,69.91
2023-02-02T23:37:56.423Z,68.04
2023-02-02T23:40:41.547Z,66.26
2023-02-02T23:43:26.931Z,65.01
2023-02-02T23:46:23.145Z,65.43
2023-02-02T23:49:16.320Z,64.40
2023-02-02T23:52:09.961Z,64.69
2023-02-02T23:55:02.846Z,63.66
2023-02-02T23:57:57.841Z,63.24
